createdAt,value
2018-01-10T00:02:16.794Z,8.22
2018-01-10T00:04:44.587Z,8.12
2018-01-10T00:07:12.056Z,8.22
2018-01-10T00:09:39.520Z,8.19
2018-01-10T00:12:07.244Z,8.17
2018-01-10T00:14:34.700Z,8.22
2018-01-10T00:17:02.164Z,8.19
2018-01-10T00:19:29.918Z,8.16
2018-01-10T00:21:57.369Z,8.12
2018-01-10T00:24:24.841Z,8.20
2018-01-10T00:26:52.921Z,8.18
2018-01-10T00:29:20.383Z,8.21
2018-01-10T00:31:47.846Z,8.09
2018-01-10T00:34:15.610Z,8.08
2018-01-10T00:36:43.069Z,8.14
2018-01-10T00:39:10.536Z,8.03
2018-01-10T00:41:38.298Z,8.12
2018-01-10T00:44:05.772Z,7.98
2018-01-10T00:46:33.237Z,7.91
2018-01-10T00:49:00.981Z,7.87
2018-01-10T00:51:28.448Z,7.85
2018-01-10T00:53:55.902Z,7.95
2018-01-10T00:56:23.976Z,7.92
2018-01-10T00:58:52.432Z,7.84
2018-01-10T01:01:19.899Z,7.76
2018-01-10T01:03:47.885Z,7.62
2018-01-10T01:06:15.341Z,7.66
2018-01-10T01:08:42.806Z,7.67
2018-01-10T01:11:10.894Z,7.57
2018-01-10T01:13:38.353Z,7.56
2018-01-10T01:16:05.818Z,7.62
2018-01-10T01:18:33.573Z,7.64
2018-01-10T01:21:01.037Z,7.64
2018-01-10T01:23:28.503Z,7.65
2018-01-10T01:25:56.253Z,7.69
2018-01-10T01:28:23.709Z,7.59
2018-01-10T01:30:51.167Z,7.69
2018-01-10T01:33:18.956Z,7.67
2018-01-10T01:35:46.415Z,7.71
2018-01-10T01:38:13.875Z,7.71
2018-01-10T01:40:41.636Z,7.69
2018-01-10T01:43:09.094Z,7.56
2018-01-10T01:45:36.560Z,7.46
2018-01-10T01:48:04.411Z,7.51
2018-01-10T01:50:31.873Z,7.57
2018-01-10T01:52:59.345Z,7.70
2018-01-10T01:55:27.325Z,7.64
2018-01-10T01:57:54.781Z,7.63
2018-01-10T02:00:23.409Z,7.58
2018-01-10T02:02:51.241Z,7.63
2018-01-10T02:05:18.737Z,7.54
2018-01-10T02:07:46.231Z,7.59
2018-01-10T02:10:13.966Z,7.55
2018-01-10T02:12:41.432Z,7.50
2018-01-10T02:15:08.884Z,7.47
2018-01-10T02:17:36.603Z,7.47
2018-01-10T02:20:04.081Z,7.46
2018-01-10T02:22:32.461Z,7.40
2018-01-10T02:25:00.218Z,7.35
2018-01-10T02:27:27.672Z,7.32
2018-01-10T02:29:55.130Z,7.35
2018-01-10T02:32:22.904Z,7.28
2018-01-10T02:34:50.360Z,7.35
2018-01-10T02:37:17.813Z,7.35
2018-01-10T02:39:45.893Z,7.34
2018-01-10T02:42:25.175Z,7.25
2018-01-10T02:44:53.428Z,7.18
2018-01-10T02:47:21.107Z,7.16
2018-01-10T02:49:48.569Z,7.08
2018-01-10T02:52:16.417Z,7.16
2018-01-10T02:54:43.875Z,7.14
2018-01-10T02:57:11.345Z,7.02
2018-01-10T02:59:39.404Z,7.07
2018-01-10T03:02:07.520Z,6.95
2018-01-10T03:04:34.984Z,6.88
2018-01-10T03:07:03.018Z,6.86
2018-01-10T03:09:30.481Z,6.95
2018-01-10T03:11:57.945Z,6.84
2018-01-10T03:14:25.756Z,6.71
2018-01-10T03:16:53.213Z,6.71
2018-01-10T03:19:20.673Z,6.67
2018-01-10T03:21:48.689Z,6.72
2018-01-10T03:24:16.147Z,6.73
2018-01-10T03:26:43.613Z,6.55
2018-01-10T03:29:11.297Z,6.41
2018-01-10T03:31:38.752Z,6.49
2018-01-10T03:34:06.216Z,6.61
2018-01-10T03:36:34.069Z,6.64
2018-01-10T03:39:01.558Z,6.44
2018-01-10T03:41:29.028Z,6.48
2018-01-10T03:43:57.069Z,6.41
2018-01-10T03:46:24.529Z,6.31
2018-01-10T03:48:51.985Z,6.14
2018-01-10T03:51:19.745Z,6.36
2018-01-10T03:53:47.271Z,6.29
2018-01-10T03:56:14.729Z,6.30
2018-01-10T03:58:42.444Z,6.64
2018-01-10T04:01:10.819Z,6.85
2018-01-10T04:03:38.349Z,6.50
2018-01-10T04:06:06.045Z,6.36
2018-01-10T04:08:33.506Z,6.32
2018-01-10T04:11:00.963Z,6.27
2018-01-10T04:13:28.717Z,6.26
2018-01-10T04:15:56.171Z,6.11
2018-01-10T04:18:23.630Z,5.91
2018-01-10T04:20:51.722Z,6.09
2018-01-10T04:23:19.186Z,6.04
2018-01-10T04:25:46.648Z,5.96
2018-01-10T04:28:14.410Z,5.93
2018-01-10T04:30:41.868Z,5.93
2018-01-10T04:33:09.332Z,5.94
2018-01-10T04:35:37.104Z,6.42
2018-01-10T04:38:04.556Z,6.24
2018-01-10T04:40:32.021Z,6.24
2018-01-10T04:42:59.780Z,6.16
2018-01-10T04:45:27.246Z,6.27
2018-01-10T04:47:54.714Z,6.02
2018-01-10T04:50:22.472Z,5.86
2018-01-10T04:52:49.925Z,5.80
2018-01-10T04:55:17.376Z,5.66
2018-01-10T04:57:45.108Z,5.64
2018-01-10T05:00:12.565Z,5.68
2018-01-10T05:02:40.028Z,5.54
2018-01-10T05:11:51.914Z,5.29
2018-01-10T05:14:19.368Z,5.28
2018-01-10T05:16:46.821Z,5.38
2018-01-10T05:19:14.820Z,5.35
2018-01-10T05:21:42.278Z,5.25
2018-01-10T05:24:09.745Z,5.37
2018-01-10T05:26:37.507Z,5.35
2018-01-10T05:29:04.969Z,5.39
2018-01-10T05:31:32.426Z,5.31
2018-01-10T05:34:00.242Z,5.27
2018-01-10T05:36:27.701Z,5.19
2018-01-10T05:38:55.158Z,5.18
2018-01-10T05:41:22.871Z,5.14
2018-01-10T05:43:50.325Z,5.07
2018-01-10T05:46:17.785Z,5.15
2018-01-10T05:48:45.385Z,5.22
2018-01-10T05:51:12.832Z,5.24
2018-01-10T05:53:40.285Z,5.21
2018-01-10T05:56:07.990Z,5.24
2018-01-10T05:58:35.453Z,5.04
2018-01-10T06:01:02.912Z,4.94
2018-01-10T06:03:30.758Z,5.01
2018-01-10T06:05:58.472Z,5.07
2018-01-10T06:08:25.938Z,5.15
2018-01-10T06:10:53.877Z,5.17
2018-01-10T06:13:21.343Z,5.07
2018-01-10T06:15:48.804Z,5.16
2018-01-10T06:18:16.621Z,5.11
2018-01-10T06:20:44.089Z,5.13
2018-01-10T06:23:11.548Z,5.20
2018-01-10T06:25:39.616Z,5.24
2018-01-10T06:28:07.074Z,5.25
2018-01-10T06:30:34.590Z,5.29
2018-01-10T06:33:02.617Z,5.20
2018-01-10T06:35:30.081Z,5.19
2018-01-10T06:37:57.545Z,5.10
2018-01-10T06:40:25.268Z,5.04
2018-01-10T06:42:52.720Z,4.99
2018-01-10T06:45:20.180Z,4.95
2018-01-10T06:47:47.853Z,5.01
2018-01-10T06:50:15.313Z,5.00
2018-01-10T06:52:42.788Z,5.07
2018-01-10T06:55:10.510Z,5.17
2018-01-10T06:57:37.967Z,5.19
2018-01-10T07:00:05.429Z,5.19
2018-01-10T07:02:33.366Z,5.10
2018-01-10T07:05:00.833Z,5.14
2018-01-10T07:07:28.703Z,5.21
2018-01-10T07:09:57.276Z,5.01
2018-01-10T07:12:24.736Z,5.20
2018-01-10T07:14:52.197Z,5.24
2018-01-10T07:17:19.963Z,5.28
2018-01-10T07:19:47.429Z,5.43
2018-01-10T07:22:14.887Z,5.56
2018-01-10T07:24:43.261Z,5.76
2018-01-10T07:27:10.728Z,5.92
2018-01-10T07:29:38.180Z,5.87
2018-01-10T07:32:05.936Z,5.96
2018-01-10T07:34:33.389Z,6.08
2018-01-10T07:37:00.854Z,6.12
2018-01-10T07:39:28.894Z,6.16
2018-01-10T07:41:56.357Z,6.20
2018-01-10T07:44:23.821Z,6.18
2018-01-10T07:46:51.594Z,6.26
2018-01-10T07:49:19.049Z,6.26
2018-01-10T07:51:46.514Z,6.42
2018-01-10T07:54:14.321Z,6.57
2018-01-10T07:56:41.781Z,6.61
2018-01-10T07:59:09.254Z,6.71
2018-01-10T08:01:38.153Z,6.71
2018-01-10T08:04:06.250Z,6.81
2018-01-10T08:06:33.723Z,6.88
2018-01-10T08:09:02.148Z,6.80
2018-01-10T08:11:29.610Z,6.59
2018-01-10T08:13:57.068Z,6.68
2018-01-10T08:16:25.139Z,6.65
2018-01-10T08:18:52.769Z,6.59
2018-01-10T08:21:20.232Z,6.58
2018-01-10T08:23:48.137Z,6.59
2018-01-10T08:26:15.593Z,6.45
2018-01-10T08:28:44.329Z,6.39
2018-01-10T08:31:12.079Z,6.39
2018-01-10T08:33:39.557Z,6.41
2018-01-10T08:36:07.015Z,6.40
2018-01-10T08:38:34.733Z,6.47
2018-01-10T08:41:02.191Z,6.56
2018-01-10T08:43:29.648Z,6.53
2018-01-10T08:45:57.732Z,6.42
2018-01-10T08:48:25.290Z,6.24
2018-01-10T08:50:52.718Z,6.41
2018-01-10T08:53:20.432Z,6.19
2018-01-10T08:55:48.831Z,6.27
2018-01-10T08:58:16.307Z,6.21
2018-01-10T09:00:44.033Z,6.21
2018-01-10T09:03:11.501Z,6.38
2018-01-10T09:05:38.954Z,6.37
2018-01-10T09:08:06.714Z,6.49
2018-01-10T09:10:36.000Z,6.48
2018-01-10T09:13:03.457Z,6.53
2018-01-10T09:15:31.237Z,6.48
2018-01-10T09:17:58.704Z,6.50
2018-01-10T09:20:26.167Z,6.56
2018-01-10T09:22:53.936Z,6.53
2018-01-10T09:25:21.398Z,6.60
2018-01-10T09:27:48.855Z,6.65
2018-01-10T09:30:16.573Z,6.74
2018-01-10T09:32:44.031Z,6.75
2018-01-10T09:35:11.485Z,6.70
2018-01-10T09:37:39.317Z,6.52
2018-01-10T09:40:06.816Z,6.53
2018-01-10T09:42:34.258Z,6.46
2018-01-10T09:45:02.006Z,6.68
2018-01-10T09:47:29.459Z,6.67
2018-01-10T09:49:56.925Z,6.75
2018-01-10T09:52:24.668Z,7.00
2018-01-10T09:54:52.126Z,6.95
2018-01-10T09:57:19.582Z,6.93
2018-01-10T09:59:47.296Z,7.25
2018-01-10T10:02:14.748Z,7.21
2018-01-10T10:04:42.218Z,7.31
2018-01-10T10:07:10.052Z,7.50
2018-01-10T10:09:37.512Z,7.62
2018-01-10T10:12:05.402Z,7.68
2018-01-10T10:14:33.125Z,7.69
2018-01-10T10:17:00.578Z,7.54
2018-01-10T10:19:28.036Z,7.50
2018-01-10T10:21:55.729Z,7.60
2018-01-10T10:24:23.186Z,7.64
2018-01-10T10:26:50.639Z,7.43
2018-01-10T10:29:18.417Z,7.55
2018-01-10T10:31:45.873Z,7.41
2018-01-10T10:34:13.338Z,7.41
2018-01-10T10:36:41.053Z,7.60
2018-01-10T10:39:08.513Z,8.05
2018-01-10T10:41:35.974Z,8.00
2018-01-10T10:44:03.784Z,7.72
2018-01-10T10:46:31.237Z,8.09
2018-01-10T10:48:58.693Z,8.24
2018-01-10T10:51:26.444Z,8.17
2018-01-10T10:53:53.900Z,8.45
2018-01-10T10:56:21.353Z,8.63
2018-01-10T10:58:48.988Z,8.84
2018-01-10T11:01:16.456Z,8.76
2018-01-10T11:03:43.914Z,8.50
2018-01-10T11:06:11.853Z,8.84
2018-01-10T11:08:39.302Z,8.85
2018-01-10T11:11:06.773Z,8.83
2018-01-10T11:13:35.785Z,8.95
2018-01-10T11:16:03.242Z,8.73
2018-01-10T11:18:30.700Z,8.78
2018-01-10T11:20:58.439Z,8.99
2018-01-10T11:23:26.006Z,9.00
2018-01-10T11:25:53.467Z,8.67
2018-01-10T11:28:27.605Z,8.68
2018-01-10T11:30:55.060Z,8.63
2018-01-10T11:33:22.507Z,8.88
2018-01-10T11:35:50.280Z,8.53
2018-01-10T11:38:17.735Z,8.58
2018-01-10T11:40:45.209Z,9.15
2018-01-10T11:43:13.268Z,9.00
2018-01-10T11:45:40.758Z,9.08
2018-01-10T11:48:08.185Z,9.04
2018-01-10T11:50:35.826Z,8.29
2018-01-10T11:53:03.286Z,8.72
2018-01-10T11:55:30.742Z,8.71
2018-01-10T11:57:58.664Z,8.96
2018-01-10T12:00:26.118Z,9.11
2018-01-10T12:02:53.568Z,9.21
2018-01-10T12:05:21.344Z,9.09
2018-01-10T12:07:48.816Z,9.04
2018-01-10T12:10:16.260Z,9.12
2018-01-10T12:12:44.024Z,8.76
2018-01-10T12:15:12.178Z,8.74
2018-01-10T12:17:39.635Z,9.03
2018-01-10T12:20:07.640Z,9.58
2018-01-10T12:22:35.142Z,10.37
2018-01-10T12:25:02.600Z,10.17
2018-01-10T12:27:30.327Z,10.68
2018-01-10T12:29:57.784Z,12.19
2018-01-10T12:32:25.250Z,12.27
2018-01-10T12:34:53.316Z,10.93
2018-01-10T12:37:20.770Z,11.71
2018-01-10T12:39:48.321Z,11.75
2018-01-10T12:42:16.572Z,12.24
2018-01-10T12:44:44.033Z,13.60
2018-01-10T12:47:11.515Z,13.94
2018-01-10T12:49:39.630Z,12.58
2018-01-10T12:52:07.089Z,12.50
2018-01-10T12:54:34.541Z,12.96
2018-01-10T12:57:02.299Z,14.00
2018-01-10T12:59:29.761Z,13.44
2018-01-10T13:01:57.220Z,12.72
2018-01-10T13:04:24.985Z,11.06
2018-01-10T13:06:52.452Z,11.84
2018-01-10T13:09:19.920Z,11.04
2018-01-10T13:11:47.677Z,10.82
2018-01-10T13:14:15.141Z,10.96
2018-01-10T13:16:42.849Z,10.84
2018-01-10T13:19:10.603Z,10.48
2018-01-10T13:21:38.074Z,10.42
2018-01-10T13:24:05.545Z,9.65
2018-01-10T13:26:33.692Z,9.38
2018-01-10T13:29:01.163Z,9.49
2018-01-10T13:31:28.609Z,9.17
2018-01-10T13:33:56.416Z,9.36
2018-01-10T13:36:23.903Z,9.76
2018-01-10T13:38:51.399Z,9.54
2018-01-10T13:41:19.354Z,9.21
2018-01-10T13:43:47.025Z,9.23
2018-01-10T13:46:14.511Z,9.52
2018-01-10T13:48:42.348Z,9.26
2018-01-10T13:51:09.800Z,9.36
2018-01-10T13:53:37.263Z,9.79
2018-01-10T13:56:04.933Z,9.64
2018-01-10T13:58:32.393Z,10.50
2018-01-10T14:00:59.858Z,10.26
2018-01-10T14:03:27.709Z,10.20
2018-01-10T14:05:55.166Z,9.66
2018-01-10T14:08:22.623Z,9.24
2018-01-10T14:10:50.294Z,9.53
2018-01-10T14:13:17.761Z,10.04
2018-01-10T14:15:45.222Z,9.34
2018-01-10T14:18:13.701Z,9.21
2018-01-10T14:20:41.217Z,9.81
2018-01-10T14:23:08.705Z,8.81
2018-01-10T14:25:36.289Z,8.68
2018-01-10T14:28:03.926Z,8.72
2018-01-10T14:30:31.390Z,8.56
2018-01-10T14:32:59.374Z,8.45
2018-01-10T14:35:26.826Z,8.55
2018-01-10T14:37:54.278Z,8.21
2018-01-10T14:40:22.066Z,8.39
2018-01-10T14:42:49.522Z,8.36
2018-01-10T14:45:16.981Z,8.44
2018-01-10T14:47:44.759Z,8.22
2018-01-10T14:50:12.219Z,8.18
2018-01-10T14:52:39.677Z,8.22
2018-01-10T14:55:07.473Z,7.99
2018-01-10T14:57:34.925Z,7.99
2018-01-10T15:00:02.384Z,7.95
2018-01-10T15:02:30.134Z,7.93
2018-01-10T15:04:57.609Z,7.47
2018-01-10T15:07:25.074Z,7.46
2018-01-10T15:09:52.809Z,7.22
2018-01-10T15:12:20.265Z,7.40
2018-01-10T15:14:47.726Z,7.17
2018-01-10T15:17:15.817Z,7.16
2018-01-10T15:19:43.349Z,7.13
2018-01-10T15:22:10.818Z,7.08
2018-01-10T15:24:38.810Z,6.97
2018-01-10T15:27:06.273Z,6.83
2018-01-10T15:29:33.736Z,6.81
2018-01-10T15:32:01.494Z,6.95
2018-01-10T15:34:28.954Z,6.94
2018-01-10T15:36:56.425Z,6.91
2018-01-10T15:39:24.490Z,7.00
2018-01-10T15:41:51.956Z,7.24
2018-01-10T15:44:19.416Z,7.30
2018-01-10T15:46:47.084Z,7.18
2018-01-10T15:49:14.547Z,7.56
2018-01-10T15:51:42.005Z,7.69
2018-01-10T15:54:09.861Z,7.62
2018-01-10T15:56:37.322Z,7.49
2018-01-10T15:59:04.788Z,7.00
2018-01-10T16:01:32.541Z,6.70
2018-01-10T16:04:00.025Z,6.51
2018-01-10T16:06:27.493Z,6.32
2018-01-10T16:08:55.239Z,6.29
2018-01-10T16:11:22.702Z,6.17
2018-01-10T16:13:50.170Z,5.98
2018-01-10T16:16:17.917Z,5.85
2018-01-10T16:18:45.389Z,5.76
2018-01-10T16:21:14.754Z,5.74
2018-01-10T16:23:42.442Z,5.72
2018-01-10T16:26:09.899Z,5.63
2018-01-10T16:28:37.355Z,5.47
2018-01-10T16:31:05.150Z,5.36
2018-01-10T16:33:32.614Z,5.24
2018-01-10T16:36:00.065Z,5.21
2018-01-10T16:38:27.824Z,5.24
2018-01-10T16:40:55.290Z,5.29
2018-01-10T16:43:22.753Z,5.32
2018-01-10T16:45:50.561Z,5.16
2018-01-10T16:48:18.027Z,5.25
2018-01-10T16:50:45.489Z,5.11
2018-01-10T16:53:13.350Z,5.19
2018-01-10T16:55:40.813Z,5.12
2018-01-10T16:58:08.281Z,5.10
2018-01-10T17:00:36.132Z,5.10
2018-01-10T17:03:03.610Z,5.17
2018-01-10T17:05:31.073Z,5.20
2018-01-10T17:07:58.896Z,5.35
2018-01-10T17:10:26.358Z,5.42
2018-01-10T17:12:53.813Z,5.50
2018-01-10T17:15:21.574Z,5.59
2018-01-10T17:17:49.054Z,5.64
2018-01-10T17:20:16.522Z,5.74
2018-01-10T17:22:45.793Z,5.82
2018-01-10T17:25:13.254Z,5.86
2018-01-10T17:27:40.726Z,5.98
2018-01-10T17:30:08.483Z,6.00
2018-01-10T17:32:35.948Z,5.95
2018-01-10T17:35:03.410Z,5.93
2018-01-10T17:37:31.164Z,5.97
2018-01-10T17:39:58.631Z,6.09
2018-01-10T17:42:26.088Z,6.11
2018-01-10T17:44:53.855Z,6.15
2018-01-10T17:47:21.325Z,6.47
2018-01-10T17:49:48.816Z,6.29
2018-01-10T17:52:16.572Z,6.30
2018-01-10T17:54:44.033Z,6.31
2018-01-10T17:57:11.507Z,6.29
2018-01-10T17:59:39.540Z,6.25
2018-01-10T18:02:07.342Z,6.29
2018-01-10T18:04:34.805Z,6.30
2018-01-10T18:07:02.461Z,6.27
2018-01-10T18:09:29.950Z,6.31
2018-01-10T18:11:57.447Z,6.24
2018-01-10T18:14:25.216Z,6.30
2018-01-10T18:16:52.690Z,6.34
2018-01-10T18:19:20.155Z,6.31
2018-01-10T18:21:47.904Z,6.27
2018-01-10T18:24:15.757Z,6.27
2018-01-10T18:26:43.229Z,6.27
2018-01-10T18:29:10.961Z,6.23
2018-01-10T18:31:38.430Z,6.16
2018-01-10T18:34:05.889Z,6.30
2018-01-10T18:36:33.788Z,6.31
2018-01-10T18:39:01.248Z,6.38
2018-01-10T18:41:28.721Z,6.39
2018-01-10T18:43:56.602Z,6.36
2018-01-10T18:46:24.069Z,6.39
2018-01-10T18:48:51.532Z,6.37
2018-01-10T18:51:19.594Z,6.38
2018-01-10T18:53:47.056Z,6.15
2018-01-10T18:56:14.513Z,6.04
2018-01-10T18:58:42.234Z,5.97
2018-01-10T19:01:09.697Z,6.01
2018-01-10T19:03:37.166Z,6.16
2018-01-10T19:06:04.951Z,6.02
2018-01-10T19:08:32.421Z,6.06
2018-01-10T19:10:59.906Z,6.25
2018-01-10T19:13:27.972Z,6.23
2018-01-10T19:15:55.445Z,6.13
2018-01-10T19:18:22.908Z,6.30
2018-01-10T19:20:50.629Z,6.35
2018-01-10T19:23:18.158Z,6.03
2018-01-10T19:25:45.935Z,6.08
2018-01-10T19:28:13.649Z,6.33
2018-01-10T19:30:41.114Z,6.35
2018-01-10T19:33:08.586Z,6.35
2018-01-10T19:35:36.328Z,6.32
2018-01-10T19:38:03.789Z,6.39
2018-01-10T19:40:31.308Z,6.39
2018-01-10T19:42:59.308Z,6.32
2018-01-10T19:45:26.769Z,6.27
2018-01-10T19:47:54.246Z,6.20
2018-01-10T19:50:21.984Z,6.09
2018-01-10T19:52:49.444Z,6.15
2018-01-10T19:55:16.919Z,6.16
2018-01-10T19:57:44.681Z,6.28
2018-01-10T20:00:12.145Z,6.27
2018-01-10T20:02:39.606Z,6.30
2018-01-10T20:05:07.357Z,6.18
2018-01-10T20:07:34.807Z,6.26
2018-01-10T20:10:02.284Z,6.15
2018-01-10T20:12:30.057Z,6.20
2018-01-10T20:14:57.544Z,6.20
2018-01-10T20:17:25.113Z,6.20
2018-01-10T20:19:53.370Z,6.24
2018-01-10T20:22:20.839Z,6.27
2018-01-10T20:24:48.296Z,6.21
2018-01-10T20:27:16.968Z,6.14
2018-01-10T20:29:44.441Z,6.22
2018-01-10T20:32:11.909Z,6.20
2018-01-10T20:34:39.695Z,6.15
2018-01-10T20:37:07.426Z,6.24
2018-01-10T20:39:34.880Z,6.24
2018-01-10T20:42:02.944Z,6.22
2018-01-10T20:44:31.509Z,6.07
2018-01-10T20:46:58.969Z,6.08
2018-01-10T20:49:26.861Z,6.05
2018-01-10T20:51:54.318Z,6.16
2018-01-10T20:54:22.406Z,6.20
2018-01-10T20:56:50.778Z,6.22
2018-01-10T20:59:18.249Z,6.27
2018-01-10T21:01:45.747Z,6.26
2018-01-10T21:04:14.082Z,6.30
2018-01-10T21:06:42.742Z,6.24
2018-01-10T21:09:10.976Z,6.23
2018-01-10T21:11:39.224Z,6.25
2018-01-10T21:14:06.690Z,6.23
2018-01-10T21:16:34.680Z,6.26
2018-01-10T21:19:02.533Z,6.29
2018-01-10T21:21:29.995Z,6.28
2018-01-10T21:23:57.463Z,6.36
2018-01-10T21:26:25.229Z,6.32
2018-01-10T21:28:53.825Z,6.23
2018-01-10T21:31:21.287Z,6.22
2018-01-10T21:33:49.142Z,6.26
2018-01-10T21:36:17.278Z,6.33
2018-01-10T21:38:45.024Z,6.28
2018-01-10T21:41:13.051Z,6.24
2018-01-10T21:43:40.505Z,6.00
2018-01-10T21:46:07.988Z,6.03
2018-01-10T21:48:36.399Z,6.24
2018-01-10T21:51:03.859Z,6.21
2018-01-10T21:53:31.335Z,6.13
2018-01-10T21:55:59.666Z,5.99
2018-01-10T21:58:27.121Z,6.16
2018-01-10T22:00:54.596Z,6.27
2018-01-10T22:03:23.639Z,6.17
2018-01-10T22:05:51.097Z,6.22
2018-01-10T22:08:18.545Z,6.18
2018-01-10T22:10:46.261Z,6.16
2018-01-10T22:13:13.721Z,6.17
2018-01-10T22:15:41.183Z,6.15
2018-01-10T22:18:09.640Z,6.11
2018-01-10T22:20:37.092Z,6.18
2018-01-10T22:23:04.543Z,6.17
2018-01-10T22:25:32.253Z,6.14
2018-01-10T22:27:59.733Z,6.01
2018-01-10T22:30:28.773Z,6.08
2018-01-10T22:32:56.441Z,5.94
2018-01-10T22:35:23.970Z,5.89
2018-01-10T22:37:51.432Z,5.88
2018-01-10T22:40:19.160Z,6.12
2018-01-10T22:42:46.644Z,6.08
2018-01-10T22:45:14.115Z,5.87
2018-01-10T22:47:41.847Z,5.91
2018-01-10T22:50:09.317Z,6.00
2018-01-10T22:52:36.782Z,6.06
2018-01-10T22:55:04.537Z,5.83
2018-01-10T22:57:31.993Z,5.93
2018-01-10T22:59:59.460Z,5.92
2018-01-10T23:02:27.183Z,5.78
2018-01-10T23:04:54.638Z,5.93
2018-01-10T23:07:22.090Z,5.83
2018-01-10T23:09:49.906Z,6.05
2018-01-10T23:12:17.357Z,5.96
2018-01-10T23:14:44.817Z,5.95
2018-01-10T23:17:12.592Z,5.90
2018-01-10T23:19:40.225Z,5.75
2018-01-10T23:22:07.889Z,5.65
2018-01-10T23:24:35.900Z,5.84
2018-01-10T23:27:03.379Z,5.71
2018-01-10T23:29:30.856Z,5.82
2018-01-10T23:31:59.193Z,5.63
2018-01-10T23:34:26.653Z,5.88
2018-01-10T23:36:54.109Z,5.78
2018-01-10T23:39:21.880Z,5.92
2018-01-10T23:41:49.349Z,5.87
2018-01-10T23:44:16.808Z,5.92
2018-01-10T23:46:44.568Z,5.92
2018-01-10T23:49:12.086Z,5.97
2018-01-10T23:51:39.510Z,5.93
2018-01-10T23:54:07.261Z,5.90
2018-01-10T23:56:34.717Z,5.98
2018-01-10T23:59:02.166Z,5.95
